sensor_id;sensor_type;location;lat;lon;timestamp;P1;durP1;ratioP1;P2;durP2;ratioP2
14231;SDS011;7200;52.194;9.900;2024-03-08T00:00:13;6.03;;;5.53;;
14231;SDS011;7200;52.194;9.900;2024-03-08T00:02:39;3.17;;;2.90;;
14231;SDS011;7200;52.194;9.900;2024-03-08T00:05:05;16.70;;;9.33;;
14231;SDS011;7200;52.194;9.900;2024-03-08T00:07:31;10.63;;;4.73;;
14231;SDS011;7200;52.194;9.900;2024-03-08T00:09:57;2.73;;;2.50;;
14231;SDS011;7200;52.194;9.900;2024-03-08T00:12:23;7.40;;;4.73;;
14231;SDS011;7200;52.194;9.900;2024-03-08T00:14:48;3.07;;;2.97;;
14231;SDS011;7200;52.194;9.900;2024-03-08T00:17:14;0.23;;;0.23;;
14231;SDS011;7200;52.194;9.900;2024-03-08T00:19:40;1.53;;;1.43;;
14231;SDS011;7200;52.194;9.900;2024-03-08T00:22:06;0.73;;;0.73;;
14231;SDS011;7200;52.194;9.900;2024-03-08T00:24:32;1.07;;;1.07;;
14231;SDS011;7200;52.194;9.900;2024-03-08T00:26:58;0.30;;;0.30;;
14231;SDS011;7200;52.194;9.900;2024-03-08T00:29:23;1.90;;;0.80;;
14231;SDS011;7200;52.194;9.900;2024-03-08T00:31:49;0.77;;;0.77;;
14231;SDS011;7200;52.194;9.900;2024-03-08T00:34:14;0.60;;;0.60;;
14231;SDS011;7200;52.194;9.900;2024-03-08T00:36:40;1.33;;;1.33;;
14231;SDS011;7200;52.194;9.900;2024-03-08T00:39:06;0.30;;;0.30;;
14231;SDS011;7200;52.194;9.900;2024-03-08T00:41:32;0.60;;;0.60;;
14231;SDS011;7200;52.194;9.900;2024-03-08T00:43:57;1.37;;;1.37;;
14231;SDS011;7200;52.194;9.900;2024-03-08T00:46:23;1.17;;;1.17;;
14231;SDS011;7200;52.194;9.900;2024-03-08T00:48:48;1.03;;;1.03;;
14231;SDS011;7200;52.194;9.900;2024-03-08T00:51:14;1.03;;;1.03;;
14231;SDS011;7200;52.194;9.900;2024-03-08T00:53:41;0.20;;;0.20;;
14231;SDS011;7200;52.194;9.900;2024-03-08T00:56:07;1.23;;;1.20;;
14231;SDS011;7200;52.194;9.900;2024-03-08T00:58:36;1.23;;;1.13;;
14231;SDS011;7200;52.194;9.900;2024-03-08T01:01:02;0.43;;;0.43;;
14231;SDS011;7200;52.194;9.900;2024-03-08T01:03:27;0.27;;;0.27;;
14231;SDS011;7200;52.194;9.900;2024-03-08T01:05:53;1.27;;;1.27;;
14231;SDS011;7200;52.194;9.900;2024-03-08T01:08:19;1.37;;;1.33;;
14231;SDS011;7200;52.194;9.900;2024-03-08T01:10:44;0.27;;;0.27;;
14231;SDS011;7200;52.194;9.900;2024-03-08T01:13:09;0.30;;;0.30;;
14231;SDS011;7200;52.194;9.900;2024-03-08T01:15:35;1.13;;;1.13;;
14231;SDS011;7200;52.194;9.900;2024-03-08T01:18:00;1.07;;;1.07;;
14231;SDS011;7200;52.194;9.900;2024-03-08T01:20:26;1.63;;;1.53;;
14231;SDS011;7200;52.194;9.900;2024-03-08T01:22:52;0.73;;;0.73;;
14231;SDS011;7200;52.194;9.900;2024-03-08T01:25:18;0.63;;;0.63;;
14231;SDS011;7200;52.194;9.900;2024-03-08T01:27:43;1.03;;;1.03;;
14231;SDS011;7200;52.194;9.900;2024-03-08T01:30:09;1.93;;;1.93;;
14231;SDS011;7200;52.194;9.900;2024-03-08T01:32:34;1.40;;;0.90;;
14231;SDS011;7200;52.194;9.900;2024-03-08T01:35:00;4.53;;;3.10;;
14231;SDS011;7200;52.194;9.900;2024-03-08T01:37:25;0.57;;;0.57;;
14231;SDS011;7200;52.194;9.900;2024-03-08T01:39:51;1.20;;;1.20;;
14231;SDS011;7200;52.194;9.900;2024-03-08T01:42:17;1.13;;;1.13;;
14231;SDS011;7200;52.194;9.900;2024-03-08T01:44:42;0.93;;;0.93;;
14231;SDS011;7200;52.194;9.900;2024-03-08T01:47:09;2.93;;;1.87;;
14231;SDS011;7200;52.194;9.900;2024-03-08T01:49:36;0.87;;;0.87;;
14231;SDS011;7200;52.194;9.900;2024-03-08T01:52:02;4.03;;;2.67;;
14231;SDS011;7200;52.194;9.900;2024-03-08T01:54:28;1.47;;;1.43;;
14231;SDS011;7200;52.194;9.900;2024-03-08T01:56:55;0.97;;;0.97;;
14231;SDS011;7200;52.194;9.900;2024-03-08T01:59:22;7.23;;;2.80;;
14231;SDS011;7200;52.194;9.900;2024-03-08T02:01:48;7.73;;;5.50;;
14231;SDS011;7200;52.194;9.900;2024-03-08T02:04:14;2.73;;;2.53;;
14231;SDS011;7200;52.194;9.900;2024-03-08T02:06:39;1.40;;;1.30;;
14231;SDS011;7200;52.194;9.900;2024-03-08T02:09:05;2.63;;;2.60;;
14231;SDS011;7200;52.194;9.900;2024-03-08T02:11:31;2.10;;;2.00;;
14231;SDS011;7200;52.194;9.900;2024-03-08T02:13:57;6.83;;;6.43;;
14231;SDS011;7200;52.194;9.900;2024-03-08T02:16:23;3.07;;;2.80;;
14231;SDS011;7200;52.194;9.900;2024-03-08T02:18:48;2.97;;;2.70;;
14231;SDS011;7200;52.194;9.900;2024-03-08T02:21:14;0.87;;;0.87;;
14231;SDS011;7200;52.194;9.900;2024-03-08T02:23:43;1.70;;;1.60;;
14231;SDS011;7200;52.194;9.900;2024-03-08T02:26:08;3.67;;;1.67;;
14231;SDS011;7200;52.194;9.900;2024-03-08T02:28:34;2.50;;;2.40;;
14231;SDS011;7200;52.194;9.900;2024-03-08T02:31:00;1.60;;;1.60;;
14231;SDS011;7200;52.194;9.900;2024-03-08T02:33:26;7.83;;;2.30;;
14231;SDS011;7200;52.194;9.900;2024-03-08T02:35:52;4.83;;;3.97;;
14231;SDS011;7200;52.194;9.900;2024-03-08T02:38:18;0.73;;;0.73;;
14231;SDS011;7200;52.194;9.900;2024-03-08T02:40:44;0.60;;;0.60;;
14231;SDS011;7200;52.194;9.900;2024-03-08T02:43:11;3.33;;;1.33;;
14231;SDS011;7200;52.194;9.900;2024-03-08T02:45:37;1.40;;;1.40;;
14231;SDS011;7200;52.194;9.900;2024-03-08T02:48:03;0.13;;;0.13;;
14231;SDS011;7200;52.194;9.900;2024-03-08T02:50:29;0.30;;;0.30;;
14231;SDS011;7200;52.194;9.900;2024-03-08T02:52:54;0.60;;;0.60;;
14231;SDS011;7200;52.194;9.900;2024-03-08T02:55:20;1.30;;;1.13;;
14231;SDS011;7200;52.194;9.900;2024-03-08T02:57:45;0.77;;;0.77;;
14231;SDS011;7200;52.194;9.900;2024-03-08T03:00:12;2.07;;;1.87;;
14231;SDS011;7200;52.194;9.900;2024-03-08T03:02:38;0.33;;;0.33;;
14231;SDS011;7200;52.194;9.900;2024-03-08T03:05:04;10.47;;;3.83;;
14231;SDS011;7200;52.194;9.900;2024-03-08T03:07:34;0.40;;;0.40;;
14231;SDS011;7200;52.194;9.900;2024-03-08T03:10:00;1.70;;;1.63;;
14231;SDS011;7200;52.194;9.900;2024-03-08T03:12:29;1.47;;;1.33;;
14231;SDS011;7200;52.194;9.900;2024-03-08T03:14:55;0.60;;;0.60;;
14231;SDS011;7200;52.194;9.900;2024-03-08T03:17:24;3.50;;;3.40;;
14231;SDS011;7200;52.194;9.900;2024-03-08T03:19:50;2.83;;;2.73;;
14231;SDS011;7200;52.194;9.900;2024-03-08T03:22:16;3.13;;;2.93;;
14231;SDS011;7200;52.194;9.900;2024-03-08T03:24:43;3.37;;;3.13;;
14231;SDS011;7200;52.194;9.900;2024-03-08T03:27:08;0.93;;;0.93;;
14231;SDS011;7200;52.194;9.900;2024-03-08T03:29:40;3.60;;;3.27;;
14231;SDS011;7200;52.194;9.900;2024-03-08T03:32:07;4.17;;;3.77;;
14231;SDS011;7200;52.194;9.900;2024-03-08T03:34:33;8.43;;;5.03;;
14231;SDS011;7200;52.194;9.900;2024-03-08T03:37:01;2.17;;;1.67;;
14231;SDS011;7200;52.194;9.900;2024-03-08T03:39:28;1.33;;;1.33;;
14231;SDS011;7200;52.194;9.900;2024-03-08T03:41:56;7.00;;;2.10;;
14231;SDS011;7200;52.194;9.900;2024-03-08T03:44:22;2.90;;;1.80;;
14231;SDS011;7200;52.194;9.900;2024-03-08T03:46:48;5.07;;;3.97;;
14231;SDS011;7200;52.194;9.900;2024-03-08T03:49:15;0.53;;;0.53;;
14231;SDS011;7200;52.194;9.900;2024-03-08T03:51:41;7.23;;;2.50;;
14231;SDS011;7200;52.194;9.900;2024-03-08T03:54:07;6.20;;;5.67;;
14231;SDS011;7200;52.194;9.900;2024-03-08T03:56:32;3.40;;;1.50;;
14231;SDS011;7200;52.194;9.900;2024-03-08T03:58:58;3.07;;;2.50;;
14231;SDS011;7200;52.194;9.900;2024-03-08T04:01:23;3.03;;;2.93;;
14231;SDS011;7200;52.194;9.900;2024-03-08T04:03:49;1.17;;;1.17;;
14231;SDS011;7200;52.194;9.900;2024-03-08T04:06:14;6.60;;;2.73;;
14231;SDS011;7200;52.194;9.900;2024-03-08T04:08:40;0.37;;;0.37;;
14231;SDS011;7200;52.194;9.900;2024-03-08T04:11:06;8.20;;;5.03;;
14231;SDS011;7200;52.194;9.900;2024-03-08T04:13:33;1.97;;;1.33;;
14231;SDS011;7200;52.194;9.900;2024-03-08T04:15:59;1.17;;;0.97;;
14231;SDS011;7200;52.194;9.900;2024-03-08T04:18:24;0.60;;;0.60;;
14231;SDS011;7200;52.194;9.900;2024-03-08T04:20:50;0.73;;;0.73;;
14231;SDS011;7200;52.194;9.900;2024-03-08T04:23:15;0.30;;;0.30;;
14231;SDS011;7200;52.194;9.900;2024-03-08T04:25:42;2.93;;;2.60;;
14231;SDS011;7200;52.194;9.900;2024-03-08T04:28:08;7.00;;;5.30;;
14231;SDS011;7200;52.194;9.900;2024-03-08T04:30:37;1.53;;;1.43;;
14231;SDS011;7200;52.194;9.900;2024-03-08T04:33:04;2.97;;;2.77;;
14231;SDS011;7200;52.194;9.900;2024-03-08T04:35:31;0.13;;;0.13;;
14231;SDS011;7200;52.194;9.900;2024-03-08T04:37:57;0.60;;;0.60;;
14231;SDS011;7200;52.194;9.900;2024-03-08T04:40:22;2.00;;;1.90;;
14231;SDS011;7200;52.194;9.900;2024-03-08T04:42:48;0.37;;;0.37;;
14231;SDS011;7200;52.194;9.900;2024-03-08T04:45:15;0.20;;;0.20;;
14231;SDS011;7200;52.194;9.900;2024-03-08T04:47:41;0.70;;;0.70;;
14231;SDS011;7200;52.194;9.900;2024-03-08T04:50:07;3.83;;;3.47;;
14231;SDS011;7200;52.194;9.900;2024-03-08T04:52:33;3.97;;;3.87;;
14231;SDS011;7200;52.194;9.900;2024-03-08T04:54:59;0.87;;;0.87;;
14231;SDS011;7200;52.194;9.900;2024-03-08T04:57:24;1.43;;;1.43;;
14231;SDS011;7200;52.194;9.900;2024-03-08T04:59:50;2.13;;;1.97;;
14231;SDS011;7200;52.194;9.900;2024-03-08T05:02:16;3.07;;;2.93;;
14231;SDS011;7200;52.194;9.900;2024-03-08T05:04:42;3.63;;;3.00;;
14231;SDS011;7200;52.194;9.900;2024-03-08T05:07:07;3.93;;;3.63;;
14231;SDS011;7200;52.194;9.900;2024-03-08T05:09:33;7.90;;;5.80;;
14231;SDS011;7200;52.194;9.900;2024-03-08T05:11:58;6.13;;;5.53;;
14231;SDS011;7200;52.194;9.900;2024-03-08T05:14:24;2.73;;;2.63;;
14231;SDS011;7200;52.194;9.900;2024-03-08T05:16:50;16.73;;;8.27;;
14231;SDS011;7200;52.194;9.900;2024-03-08T05:19:19;12.03;;;9.57;;
14231;SDS011;7200;52.194;9.900;2024-03-08T05:21:49;7.33;;;3.93;;
14231;SDS011;7200;52.194;9.900;2024-03-08T05:24:15;17.33;;;10.10;;
14231;SDS011;7200;52.194;9.900;2024-03-08T05:26:41;25.37;;;13.27;;
14231;SDS011;7200;52.194;9.900;2024-03-08T05:29:07;2.30;;;2.13;;
14231;SDS011;7200;52.194;9.900;2024-03-08T05:31:55;15.33;;;10.07;;
14231;SDS011;7200;52.194;9.900;2024-03-08T05:34:20;6.47;;;4.60;;
14231;SDS011;7200;52.194;9.900;2024-03-08T05:36:47;4.63;;;4.00;;
14231;SDS011;7200;52.194;9.900;2024-03-08T05:39:14;9.23;;;7.00;;
14231;SDS011;7200;52.194;9.900;2024-03-08T05:41:40;7.57;;;3.37;;
14231;SDS011;7200;52.194;9.900;2024-03-08T05:44:06;21.87;;;13.40;;
14231;SDS011;7200;52.194;9.900;2024-03-08T05:46:31;5.73;;;3.20;;
14231;SDS011;7200;52.194;9.900;2024-03-08T05:48:57;14.50;;;8.00;;
14231;SDS011;7200;52.194;9.900;2024-03-08T05:51:24;19.30;;;6.10;;
14231;SDS011;7200;52.194;9.900;2024-03-08T05:53:51;12.60;;;7.73;;
14231;SDS011;7200;52.194;9.900;2024-03-08T05:56:18;5.53;;;5.03;;
14231;SDS011;7200;52.194;9.900;2024-03-08T05:58:43;12.83;;;3.20;;
14231;SDS011;7200;52.194;9.900;2024-03-08T06:01:09;10.73;;;5.63;;
14231;SDS011;7200;52.194;9.900;2024-03-08T06:03:37;5.00;;;4.37;;
14231;SDS011;7200;52.194;9.900;2024-03-08T06:06:09;7.90;;;6.13;;
14231;SDS011;7200;52.194;9.900;2024-03-08T06:08:34;6.30;;;5.70;;
14231;SDS011;7200;52.194;9.900;2024-03-08T06:10:59;5.80;;;4.77;;
14231;SDS011;7200;52.194;9.900;2024-03-08T06:13:27;5.33;;;4.83;;
14231;SDS011;7200;52.194;9.900;2024-03-08T06:15:52;8.17;;;7.13;;
14231;SDS011;7200;52.194;9.900;2024-03-08T06:18:18;5.90;;;3.13;;
14231;SDS011;7200;52.194;9.900;2024-03-08T06:20:43;12.30;;;8.93;;
14231;SDS011;7200;52.194;9.900;2024-03-08T06:23:09;5.47;;;3.40;;
14231;SDS011;7200;52.194;9.900;2024-03-08T06:25:34;5.80;;;1.93;;
14231;SDS011;7200;52.194;9.900;2024-03-08T06:28:00;8.83;;;6.97;;
14231;SDS011;7200;52.194;9.900;2024-03-08T06:30:25;17.47;;;11.77;;
14231;SDS011;7200;52.194;9.900;2024-03-08T06:32:50;16.07;;;13.83;;
14231;SDS011;7200;52.194;9.900;2024-03-08T06:35:16;17.73;;;9.80;;
14231;SDS011;7200;52.194;9.900;2024-03-08T06:37:41;13.57;;;9.10;;
14231;SDS011;7200;52.194;9.900;2024-03-08T06:40:09;12.07;;;6.73;;
14231;SDS011;7200;52.194;9.900;2024-03-08T06:42:38;25.33;;;15.27;;
14231;SDS011;7200;52.194;9.900;2024-03-08T06:45:04;6.23;;;5.60;;
14231;SDS011;7200;52.194;9.900;2024-03-08T06:47:30;25.07;;;13.10;;
14231;SDS011;7200;52.194;9.900;2024-03-08T06:49:57;14.27;;;8.60;;
14231;SDS011;7200;52.194;9.900;2024-03-08T06:52:22;18.50;;;11.60;;
14231;SDS011;7200;52.194;9.900;2024-03-08T06:54:48;21.40;;;13.37;;
14231;SDS011;7200;52.194;9.900;2024-03-08T06:57:14;12.33;;;9.17;;
14231;SDS011;7200;52.194;9.900;2024-03-08T06:59:39;7.13;;;6.43;;
14231;SDS011;7200;52.194;9.900;2024-03-08T07:02:04;21.47;;;14.70;;
14231;SDS011;7200;52.194;9.900;2024-03-08T07:04:33;16.13;;;9.93;;
14231;SDS011;7200;52.194;9.900;2024-03-08T07:07:03;18.37;;;13.20;;
14231;SDS011;7200;52.194;9.900;2024-03-08T07:09:28;23.50;;;17.53;;
14231;SDS011;7200;52.194;9.900;2024-03-08T07:11:54;18.60;;;13.23;;
14231;SDS011;7200;52.194;9.900;2024-03-08T07:14:22;7.00;;;3.00;;
14231;SDS011;7200;52.194;9.900;2024-03-08T07:16:48;4.43;;;4.23;;
14231;SDS011;7200;52.194;9.900;2024-03-08T07:19:14;8.03;;;7.10;;
14231;SDS011;7200;52.194;9.900;2024-03-08T07:21:40;18.03;;;11.60;;
14231;SDS011;7200;52.194;9.900;2024-03-08T07:24:07;9.33;;;8.40;;
14231;SDS011;7200;52.194;9.900;2024-03-08T07:26:52;18.03;;;9.87;;
14231;SDS011;7200;52.194;9.900;2024-03-08T07:29:18;25.23;;;15.73;;
14231;SDS011;7200;52.194;9.900;2024-03-08T07:31:43;26.00;;;12.63;;
14231;SDS011;7200;52.194;9.900;2024-03-08T07:34:35;15.07;;;8.93;;
14231;SDS011;7200;52.194;9.900;2024-03-08T07:37:00;17.47;;;11.67;;
14231;SDS011;7200;52.194;9.900;2024-03-08T07:39:25;32.10;;;17.63;;
14231;SDS011;7200;52.194;9.900;2024-03-08T07:41:51;22.23;;;15.57;;
14231;SDS011;7200;52.194;9.900;2024-03-08T07:44:20;15.33;;;11.03;;
14231;SDS011;7200;52.194;9.900;2024-03-08T07:46:45;25.60;;;16.40;;
14231;SDS011;7200;52.194;9.900;2024-03-08T07:49:10;31.90;;;17.27;;
14231;SDS011;7200;52.194;9.900;2024-03-08T07:51:37;23.70;;;14.50;;
14231;SDS011;7200;52.194;9.900;2024-03-08T07:54:03;16.03;;;14.33;;
14231;SDS011;7200;52.194;9.900;2024-03-08T07:56:29;9.73;;;7.47;;
14231;SDS011;7200;52.194;9.900;2024-03-08T07:58:55;15.33;;;9.73;;
14231;SDS011;7200;52.194;9.900;2024-03-08T08:01:21;21.87;;;14.43;;
14231;SDS011;7200;52.194;9.900;2024-03-08T08:03:46;17.90;;;8.77;;
14231;SDS011;7200;52.194;9.900;2024-03-08T08:06:14;12.37;;;8.90;;
14231;SDS011;7200;52.194;9.900;2024-03-08T08:08:43;14.03;;;5.17;;
14231;SDS011;7200;52.194;9.900;2024-03-08T08:11:09;22.37;;;14.37;;
14231;SDS011;7200;52.194;9.900;2024-03-08T08:13:36;27.83;;;12.87;;
14231;SDS011;7200;52.194;9.900;2024-03-08T08:16:02;15.87;;;8.67;;
14231;SDS011;7200;52.194;9.900;2024-03-08T08:18:28;22.03;;;14.40;;
14231;SDS011;7200;52.194;9.900;2024-03-08T08:20:54;12.30;;;7.97;;
14231;SDS011;7200;52.194;9.900;2024-03-08T08:23:20;22.27;;;14.90;;
14231;SDS011;7200;52.194;9.900;2024-03-08T08:25:46;8.60;;;7.33;;
14231;SDS011;7200;52.194;9.900;2024-03-08T08:28:15;16.37;;;9.23;;
14231;SDS011;7200;52.194;9.900;2024-03-08T08:30:46;27.00;;;14.37;;
14231;SDS011;7200;52.194;9.900;2024-03-08T08:33:13;7.33;;;5.53;;
14231;SDS011;7200;52.194;9.900;2024-03-08T08:35:40;18.23;;;12.43;;
14231;SDS011;7200;52.194;9.900;2024-03-08T08:38:05;7.43;;;5.63;;
14231;SDS011;7200;52.194;9.900;2024-03-08T08:40:32;18.97;;;12.50;;
14231;SDS011;7200;52.194;9.900;2024-03-08T08:42:58;10.97;;;8.80;;
14231;SDS011;7200;52.194;9.900;2024-03-08T08:45:24;14.33;;;8.67;;
14231;SDS011;7200;52.194;9.900;2024-03-08T08:47:50;4.60;;;4.20;;
14231;SDS011;7200;52.194;9.900;2024-03-08T08:50:16;0.60;;;0.60;;
14231;SDS011;7200;52.194;9.900;2024-03-08T08:52:47;3.37;;;1.60;;
14231;SDS011;7200;52.194;9.900;2024-03-08T08:55:13;6.67;;;6.07;;
14231;SDS011;7200;52.194;9.900;2024-03-08T08:57:39;0.50;;;0.50;;
14231;SDS011;7200;52.194;9.900;2024-03-08T09:00:05;14.33;;;8.27;;
14231;SDS011;7200;52.194;9.900;2024-03-08T09:02:32;4.33;;;4.03;;
14231;SDS011;7200;52.194;9.900;2024-03-08T09:04:59;11.60;;;8.43;;
14231;SDS011;7200;52.194;9.900;2024-03-08T09:07:25;5.07;;;4.60;;
14231;SDS011;7200;52.194;9.900;2024-03-08T09:09:52;6.63;;;3.47;;
14231;SDS011;7200;52.194;9.900;2024-03-08T09:12:21;7.23;;;6.37;;
14231;SDS011;7200;52.194;9.900;2024-03-08T09:14:47;13.80;;;10.57;;
14231;SDS011;7200;52.194;9.900;2024-03-08T09:17:13;10.53;;;7.30;;
14231;SDS011;7200;52.194;9.900;2024-03-08T09:19:42;11.50;;;8.03;;
14231;SDS011;7200;52.194;9.900;2024-03-08T09:22:07;6.60;;;6.00;;
14231;SDS011;7200;52.194;9.900;2024-03-08T09:24:33;9.80;;;6.67;;
14231;SDS011;7200;52.194;9.900;2024-03-08T09:26:58;8.23;;;6.97;;
14231;SDS011;7200;52.194;9.900;2024-03-08T09:29:24;15.70;;;10.57;;
14231;SDS011;7200;52.194;9.900;2024-03-08T09:31:49;13.83;;;9.70;;
14231;SDS011;7200;52.194;9.900;2024-03-08T09:34:15;17.10;;;10.33;;
14231;SDS011;7200;52.194;9.900;2024-03-08T09:36:40;21.50;;;13.00;;
14231;SDS011;7200;52.194;9.900;2024-03-08T09:39:06;5.43;;;3.97;;
14231;SDS011;7200;52.194;9.900;2024-03-08T09:41:32;11.63;;;6.83;;
14231;SDS011;7200;52.194;9.900;2024-03-08T09:43:59;14.90;;;9.17;;
14231;SDS011;7200;52.194;9.900;2024-03-08T09:46:25;14.73;;;10.20;;
14231;SDS011;7200;52.194;9.900;2024-03-08T09:48:52;16.07;;;10.50;;
14231;SDS011;7200;52.194;9.900;2024-03-08T09:51:19;8.57;;;7.37;;
14231;SDS011;7200;52.194;9.900;2024-03-08T09:53:51;10.47;;;7.77;;
14231;SDS011;7200;52.194;9.900;2024-03-08T09:56:18;13.17;;;6.43;;
14231;SDS011;7200;52.194;9.900;2024-03-08T09:58:44;13.00;;;10.23;;
14231;SDS011;7200;52.194;9.900;2024-03-08T10:01:39;19.43;;;13.37;;
14231;SDS011;7200;52.194;9.900;2024-03-08T10:04:04;20.33;;;13.90;;
14231;SDS011;7200;52.194;9.900;2024-03-08T10:06:30;17.03;;;14.03;;
14231;SDS011;7200;52.194;9.900;2024-03-08T10:08:56;20.27;;;13.73;;
14231;SDS011;7200;52.194;9.900;2024-03-08T10:11:22;24.63;;;15.33;;
14231;SDS011;7200;52.194;9.900;2024-03-08T10:13:48;17.10;;;13.90;;
14231;SDS011;7200;52.194;9.900;2024-03-08T10:16:15;17.83;;;13.13;;
14231;SDS011;7200;52.194;9.900;2024-03-08T10:18:42;17.50;;;12.10;;
14231;SDS011;7200;52.194;9.900;2024-03-08T10:21:08;12.70;;;6.87;;
14231;SDS011;7200;52.194;9.900;2024-03-08T10:23:37;19.17;;;13.10;;
14231;SDS011;7200;52.194;9.900;2024-03-08T10:26:09;9.20;;;8.30;;
14231;SDS011;7200;52.194;9.900;2024-03-08T10:28:44;16.67;;;12.53;;
14231;SDS011;7200;52.194;9.900;2024-03-08T10:31:12;15.80;;;12.17;;
14231;SDS011;7200;52.194;9.900;2024-03-08T10:33:40;15.87;;;13.03;;
14231;SDS011;7200;52.194;9.900;2024-03-08T10:36:06;9.80;;;8.27;;
14231;SDS011;7200;52.194;9.900;2024-03-08T10:38:35;10.97;;;9.63;;
14231;SDS011;7200;52.194;9.900;2024-03-08T10:41:01;10.10;;;8.77;;
14231;SDS011;7200;52.194;9.900;2024-03-08T10:43:28;21.63;;;15.13;;
14231;SDS011;7200;52.194;9.900;2024-03-08T10:48:50;11.23;;;9.40;;
14231;SDS011;7200;52.194;9.900;2024-03-08T10:51:19;4.50;;;4.00;;
14231;SDS011;7200;52.194;9.900;2024-03-08T10:53:45;18.23;;;13.53;;
14231;SDS011;7200;52.194;9.900;2024-03-08T10:56:13;14.90;;;9.30;;
14231;SDS011;7200;52.194;9.900;2024-03-08T10:58:39;12.77;;;8.67;;
14231;SDS011;7200;52.194;9.900;2024-03-08T11:01:06;25.63;;;15.13;;
14231;SDS011;7200;52.194;9.900;2024-03-08T11:08:47;22.17;;;18.97;;
14231;SDS011;7200;52.194;9.900;2024-03-08T11:11:31;14.77;;;10.80;;
14231;SDS011;7200;52.194;9.900;2024-03-08T11:13:59;16.77;;;13.73;;
14231;SDS011;7200;52.194;9.900;2024-03-08T11:18:57;9.40;;;8.23;;
14231;SDS011;7200;52.194;9.900;2024-03-08T11:21:32;19.20;;;10.97;;
14231;SDS011;7200;52.194;9.900;2024-03-08T11:23:59;19.03;;;12.83;;
14231;SDS011;7200;52.194;9.900;2024-03-08T11:26:31;20.07;;;13.00;;
14231;SDS011;7200;52.194;9.900;2024-03-08T11:34:41;17.50;;;12.93;;
14231;SDS011;7200;52.194;9.900;2024-03-08T11:37:11;8.07;;;6.50;;
14231;SDS011;7200;52.194;9.900;2024-03-08T11:39:55;21.70;;;13.07;;
14231;SDS011;7200;52.194;9.900;2024-03-08T11:42:24;22.87;;;16.60;;
14231;SDS011;7200;52.194;9.900;2024-03-08T11:44:51;6.20;;;5.57;;
14231;SDS011;7200;52.194;9.900;2024-03-08T11:47:17;9.70;;;8.80;;
14231;SDS011;7200;52.194;9.900;2024-03-08T11:49:43;24.57;;;15.07;;
14231;SDS011;7200;52.194;9.900;2024-03-08T11:52:16;11.43;;;9.13;;
14231;SDS011;7200;52.194;9.900;2024-03-08T11:54:47;22.13;;;14.20;;
14231;SDS011;7200;52.194;9.900;2024-03-08T11:57:18;16.03;;;13.03;;
14231;SDS011;7200;52.194;9.900;2024-03-08T11:59:53;17.40;;;13.50;;
14231;SDS011;7200;52.194;9.900;2024-03-08T12:02:21;19.90;;;14.93;;
14231;SDS011;7200;52.194;9.900;2024-03-08T12:04:50;20.40;;;14.40;;
14231;SDS011;7200;52.194;9.900;2024-03-08T12:07:22;16.17;;;11.83;;
14231;SDS011;7200;52.194;9.900;2024-03-08T12:12:42;16.00;;;13.60;;
14231;SDS011;7200;52.194;9.900;2024-03-08T12:15:09;13.73;;;9.70;;
14231;SDS011;7200;52.194;9.900;2024-03-08T12:17:36;14.77;;;10.00;;
14231;SDS011;7200;52.194;9.900;2024-03-08T12:20:15;16.00;;;11.47;;
14231;SDS011;7200;52.194;9.900;2024-03-08T12:22:46;13.37;;;11.83;;
14231;SDS011;7200;52.194;9.900;2024-03-08T12:25:13;12.87;;;11.50;;
14231;SDS011;7200;52.194;9.900;2024-03-08T12:27:40;20.23;;;15.37;;
14231;SDS011;7200;52.194;9.900;2024-03-08T12:30:16;16.93;;;13.60;;
14231;SDS011;7200;52.194;9.900;2024-03-08T12:32:46;14.83;;;11.23;;
14231;SDS011;7200;52.194;9.900;2024-03-08T12:35:22;18.40;;;15.37;;
14231;SDS011;7200;52.194;9.900;2024-03-08T12:37:50;16.07;;;12.40;;
14231;SDS011;7200;52.194;9.900;2024-03-08T12:40:21;28.90;;;20.53;;
14231;SDS011;7200;52.194;9.900;2024-03-08T12:42:54;16.77;;;12.37;;
14231;SDS011;7200;52.194;9.900;2024-03-08T12:45:23;15.60;;;12.10;;
14231;SDS011;7200;52.194;9.900;2024-03-08T12:47:52;22.07;;;18.03;;
14231;SDS011;7200;52.194;9.900;2024-03-08T12:50:19;12.93;;;9.97;;
14231;SDS011;7200;52.194;9.900;2024-03-08T12:52:45;16.43;;;13.70;;
14231;SDS011;7200;52.194;9.900;2024-03-08T12:55:11;23.67;;;12.00;;
14231;SDS011;7200;52.194;9.900;2024-03-08T12:57:37;17.00;;;12.13;;
14231;SDS011;7200;52.194;9.900;2024-03-08T13:00:03;19.10;;;14.43;;
14231;SDS011;7200;52.194;9.900;2024-03-08T13:02:30;20.23;;;12.67;;
14231;SDS011;7200;52.194;9.900;2024-03-08T13:04:57;23.33;;;18.23;;
14231;SDS011;7200;52.194;9.900;2024-03-08T13:07:23;13.53;;;11.97;;
14231;SDS011;7200;52.194;9.900;2024-03-08T13:09:51;20.47;;;12.70;;
14231;SDS011;7200;52.194;9.900;2024-03-08T13:12:17;21.00;;;16.87;;
14231;SDS011;7200;52.194;9.900;2024-03-08T13:14:43;22.27;;;16.97;;
14231;SDS011;7200;52.194;9.900;2024-03-08T13:17:08;17.10;;;13.70;;
14231;SDS011;7200;52.194;9.900;2024-03-08T13:19:36;19.13;;;15.20;;
14231;SDS011;7200;52.194;9.900;2024-03-08T13:22:03;20.73;;;17.57;;
14231;SDS011;7200;52.194;9.900;2024-03-08T13:24:32;14.33;;;12.67;;
14231;SDS011;7200;52.194;9.900;2024-03-08T13:26:58;13.60;;;10.47;;
14231;SDS011;7200;52.194;9.900;2024-03-08T13:29:24;24.70;;;18.30;;
14231;SDS011;7200;52.194;9.900;2024-03-08T13:31:50;23.97;;;15.00;;
14231;SDS011;7200;52.194;9.900;2024-03-08T13:34:17;13.73;;;11.80;;
14231;SDS011;7200;52.194;9.900;2024-03-08T13:36:43;22.30;;;15.10;;
14231;SDS011;7200;52.194;9.900;2024-03-08T13:39:10;19.57;;;14.60;;
14231;SDS011;7200;52.194;9.900;2024-03-08T13:41:41;20.17;;;13.90;;
14231;SDS011;7200;52.194;9.900;2024-03-08T13:44:07;14.13;;;11.40;;
14231;SDS011;7200;52.194;9.900;2024-03-08T13:46:32;17.70;;;14.37;;
14231;SDS011;7200;52.194;9.900;2024-03-08T13:49:02;24.67;;;18.73;;
14231;SDS011;7200;52.194;9.900;2024-03-08T13:51:31;15.30;;;13.43;;
14231;SDS011;7200;52.194;9.900;2024-03-08T13:53:57;15.93;;;12.00;;
14231;SDS011;7200;52.194;9.900;2024-03-08T13:56:22;18.17;;;12.73;;
14231;SDS011;7200;52.194;9.900;2024-03-08T13:58:48;17.77;;;12.77;;
14231;SDS011;7200;52.194;9.900;2024-03-08T14:01:13;20.10;;;16.43;;
14231;SDS011;7200;52.194;9.900;2024-03-08T14:03:39;18.57;;;12.30;;
14231;SDS011;7200;52.194;9.900;2024-03-08T14:06:08;18.37;;;13.53;;
14231;SDS011;7200;52.194;9.900;2024-03-08T14:08:34;17.80;;;13.73;;
14231;SDS011;7200;52.194;9.900;2024-03-08T14:11:03;11.43;;;10.27;;
14231;SDS011;7200;52.194;9.900;2024-03-08T14:13:40;24.83;;;16.63;;
14231;SDS011;7200;52.194;9.900;2024-03-08T14:16:12;19.70;;;14.60;;
14231;SDS011;7200;52.194;9.900;2024-03-08T14:18:38;14.73;;;10.27;;
14231;SDS011;7200;52.194;9.900;2024-03-08T14:21:03;23.63;;;17.33;;
14231;SDS011;7200;52.194;9.900;2024-03-08T14:23:30;20.93;;;10.37;;
14231;SDS011;7200;52.194;9.900;2024-03-08T14:25:55;13.03;;;9.70;;
14231;SDS011;7200;52.194;9.900;2024-03-08T14:28:21;13.50;;;9.70;;
14231;SDS011;7200;52.194;9.900;2024-03-08T14:30:47;23.07;;;18.63;;
14231;SDS011;7200;52.194;9.900;2024-03-08T14:33:14;16.30;;;10.87;;
14231;SDS011;7200;52.194;9.900;2024-03-08T14:35:40;16.40;;;12.97;;
14231;SDS011;7200;52.194;9.900;2024-03-08T14:38:06;15.73;;;12.07;;
14231;SDS011;7200;52.194;9.900;2024-03-08T14:40:35;18.50;;;14.57;;
14231;SDS011;7200;52.194;9.900;2024-03-08T14:43:04;26.80;;;18.03;;
14231;SDS011;7200;52.194;9.900;2024-03-08T14:45:30;19.07;;;13.63;;
14231;SDS011;7200;52.194;9.900;2024-03-08T14:47:56;14.67;;;10.50;;
14231;SDS011;7200;52.194;9.900;2024-03-08T14:50:22;19.87;;;13.80;;
14231;SDS011;7200;52.194;9.900;2024-03-08T14:52:49;18.27;;;13.23;;
14231;SDS011;7200;52.194;9.900;2024-03-08T14:55:16;6.87;;;5.53;;
14231;SDS011;7200;52.194;9.900;2024-03-08T14:57:44;16.23;;;13.13;;
14231;SDS011;7200;52.194;9.900;2024-03-08T15:00:11;26.53;;;18.70;;
14231;SDS011;7200;52.194;9.900;2024-03-08T15:03:03;16.60;;;11.07;;
14231;SDS011;7200;52.194;9.900;2024-03-08T15:05:32;11.37;;;8.33;;
14231;SDS011;7200;52.194;9.900;2024-03-08T15:08:02;10.20;;;9.20;;